createdAt,value
2018-11-10T00:02:18.954Z,100197.80
2018-11-10T00:04:46.468Z,100190.72
2018-11-10T00:07:13.998Z,100195.99
2018-11-10T00:09:41.539Z,100187.05
2018-11-10T00:12:09.011Z,100183.33
2018-11-10T00:14:36.563Z,100179.28
2018-11-10T00:17:04.439Z,100186.42
2018-11-10T00:19:32.033Z,100189.18
2018-11-10T00:21:59.666Z,100183.71
2018-11-10T00:24:27.321Z,100173.78
2018-11-10T00:26:54.876Z,100165.77
2018-11-10T00:29:22.446Z,100156.21
2018-11-10T00:31:50.207Z,100157.17
2018-11-10T00:34:17.763Z,100165.89
2018-11-10T00:36:45.445Z,100157.41
2018-11-10T00:39:12.964Z,100154.42
2018-11-10T00:41:40.435Z,100158.84
2018-11-10T00:44:08.134Z,100153.60
2018-11-10T00:46:35.736Z,100150.59
2018-11-10T00:49:03.318Z,100158.61
2018-11-10T00:51:30.897Z,100150.26
2018-11-10T00:53:58.330Z,100160.50
2018-11-10T00:56:25.807Z,100157.30
2018-11-10T00:58:53.499Z,100158.14
2018-11-10T01:01:21.084Z,100151.55
2018-11-10T01:03:48.524Z,100150.62
2018-11-10T01:06:16.271Z,100143.68
2018-11-10T01:08:43.681Z,100143.08
2018-11-10T01:11:11.107Z,100140.80
2018-11-10T01:13:38.715Z,100142.61
2018-11-10T01:16:06.356Z,100141.73
2018-11-10T01:18:33.833Z,100140.56
2018-11-10T01:21:01.664Z,100140.67
2018-11-10T01:23:29.297Z,100144.64
2018-11-10T01:25:56.729Z,100131.02
2018-11-10T01:28:24.201Z,100124.56
2018-11-10T01:30:51.624Z,100119.78
2018-11-10T01:33:19.058Z,100129.22
2018-11-10T01:35:46.663Z,100133.97
2018-11-10T01:38:14.113Z,100132.55
2018-11-10T01:40:41.758Z,100128.01
2018-11-10T01:43:09.290Z,100131.63
2018-11-10T01:45:36.752Z,100128.72
2018-11-10T01:48:04.861Z,100133.02
2018-11-10T01:50:32.386Z,100127.62
2018-11-10T01:52:59.801Z,100115.31
2018-11-10T01:55:27.214Z,100112.33
2018-11-10T01:57:54.784Z,100102.79
2018-11-10T02:00:22.271Z,100105.66
2018-11-10T02:02:49.879Z,100101.62
2018-11-10T02:05:17.754Z,100099.84
2018-11-10T02:07:45.209Z,100101.28
2018-11-10T02:10:13.230Z,100095.08
2018-11-10T02:12:41.366Z,100098.77
2018-11-10T02:15:12.601Z,100084.56
2018-11-10T02:17:40.121Z,100086.47
2018-11-10T02:20:08.818Z,100085.64
2018-11-10T02:22:36.493Z,100079.41
2018-11-10T02:25:04.082Z,100069.97
2018-11-10T02:27:31.855Z,100067.23
2018-11-10T02:29:59.509Z,100066.76
2018-11-10T02:32:27.017Z,100068.53
2018-11-10T02:34:54.449Z,100074.87
2018-11-10T02:37:21.945Z,100071.98
2018-11-10T02:39:49.449Z,100064.35
2018-11-10T02:42:16.969Z,100070.06
2018-11-10T02:44:44.461Z,100059.44
2018-11-10T02:47:11.927Z,100056.31
2018-11-10T02:49:39.527Z,100056.28
2018-11-10T02:52:07.101Z,100049.84
2018-11-10T02:54:34.573Z,100050.91
2018-11-10T02:57:02.181Z,100044.23
2018-11-10T02:59:29.703Z,100046.95
2018-11-10T03:01:57.155Z,100049.52
2018-11-10T03:04:24.673Z,100043.94
2018-11-10T03:06:52.119Z,100035.70
2018-11-10T03:09:19.587Z,100036.78
2018-11-10T03:11:47.136Z,100036.67
2018-11-10T03:14:14.554Z,100035.20
2018-11-10T03:16:42.175Z,100033.39
2018-11-10T03:19:10.103Z,100032.78
2018-11-10T03:21:38.133Z,100026.05
2018-11-10T03:24:06.003Z,100026.20
2018-11-10T03:26:33.837Z,100035.91
2018-11-10T03:29:01.670Z,100026.94
2018-11-10T03:31:29.629Z,100026.94
2018-11-10T03:33:57.413Z,100020.56
2018-11-10T03:36:25.115Z,100017.08
2018-11-10T03:38:52.855Z,100012.52
2018-11-10T03:41:20.789Z,100002.58
2018-11-10T03:43:48.501Z,99993.75
2018-11-10T03:46:16.095Z,99997.89
2018-11-10T03:48:43.744Z,100003.38
2018-11-10T03:51:11.536Z,100014.48
2018-11-10T03:53:39.686Z,100012.63
2018-11-10T03:56:07.663Z,100025.32
2018-11-10T03:58:35.320Z,100026.16
2018-11-10T04:01:03.232Z,100013.75
2018-11-10T04:03:30.650Z,100020.20
2018-11-10T04:05:58.132Z,99995.30
2018-11-10T04:08:25.653Z,99979.36
2018-11-10T04:10:53.150Z,99989.27
2018-11-10T04:13:20.621Z,99990.84
2018-11-10T04:15:48.085Z,100010.81
2018-11-10T04:18:15.851Z,100016.23
2018-11-10T04:20:43.558Z,100001.88
2018-11-10T04:23:11.099Z,100000.52
2018-11-10T04:25:38.581Z,100002.80
2018-11-10T04:28:06.038Z,100005.05
2018-11-10T04:30:33.577Z,100010.95
2018-11-10T04:33:01.022Z,99999.23
2018-11-10T04:35:28.446Z,100007.63
2018-11-10T04:37:56.046Z,100020.48
2018-11-10T04:40:23.595Z,100032.36
2018-11-10T04:42:51.134Z,100053.67
2018-11-10T04:45:18.701Z,100051.63
2018-11-10T04:47:46.145Z,100047.33
2018-11-10T04:50:13.574Z,100039.09
2018-11-10T04:52:41.463Z,100037.23
2018-11-10T04:55:10.095Z,100040.84
2018-11-10T04:57:37.839Z,100027.68
2018-11-10T05:00:07.540Z,100017.34
2018-11-10T05:02:35.042Z,100008.64
2018-11-10T05:05:02.487Z,99987.94
2018-11-10T05:07:29.930Z,100002.14
2018-11-10T05:09:57.343Z,99997.58
2018-11-10T05:12:24.940Z,100018.28
2018-11-10T05:14:52.438Z,100021.06
2018-11-10T05:17:19.954Z,100001.68
2018-11-10T05:19:47.394Z,99996.11
2018-11-10T05:22:15.006Z,99986.43
2018-11-10T05:24:42.550Z,99995.72
2018-11-10T05:27:10.116Z,99986.86
2018-11-10T05:29:37.578Z,99981.75
2018-11-10T05:32:05.272Z,100000.21
2018-11-10T05:34:32.754Z,99997.03
2018-11-10T05:37:00.238Z,99979.59
2018-11-10T05:39:27.722Z,99963.33
2018-11-10T05:41:55.246Z,99968.90
2018-11-10T05:44:22.688Z,99980.47
2018-11-10T05:46:50.392Z,99985.03
2018-11-10T05:49:17.906Z,100001.68
2018-11-10T05:51:45.446Z,100014.41
2018-11-10T05:54:13.022Z,100028.56
2018-11-10T05:56:40.481Z,100021.75
2018-11-10T05:59:07.884Z,100016.96
2018-11-10T06:01:35.434Z,100012.40
2018-11-10T06:04:03.048Z,100026.95
2018-11-10T06:06:30.614Z,100012.05
2018-11-10T06:08:58.170Z,100003.00
2018-11-10T06:11:25.626Z,99991.19
2018-11-10T06:13:53.046Z,99981.97
2018-11-10T06:16:20.542Z,99973.41
2018-11-10T06:18:48.203Z,99985.17
2018-11-10T06:21:15.547Z,99995.59
2018-11-10T06:23:43.125Z,99981.13
2018-11-10T06:26:10.675Z,99986.97
2018-11-10T06:28:38.116Z,99973.38
2018-11-10T06:31:06.874Z,99977.69
2018-11-10T06:33:34.319Z,99983.69
2018-11-10T06:36:01.831Z,99991.67
2018-11-10T06:38:29.290Z,99988.08
2018-11-10T06:40:56.789Z,99974.93
2018-11-10T06:43:24.200Z,99981.03
2018-11-10T06:45:51.770Z,99959.08
2018-11-10T06:48:19.226Z,99960.97
2018-11-10T06:50:46.671Z,99968.36
2018-11-10T06:53:14.274Z,99995.48
2018-11-10T06:55:41.730Z,100016.15
2018-11-10T06:58:09.191Z,100011.01
2018-11-10T07:00:36.702Z,100013.37
2018-11-10T07:03:04.386Z,99995.58
2018-11-10T07:05:31.923Z,99997.73
2018-11-10T07:07:59.371Z,99975.76
2018-11-10T07:10:26.858Z,99976.81
2018-11-10T07:12:54.266Z,99978.38
2018-11-10T07:15:21.900Z,99976.46
2018-11-10T07:17:49.478Z,99989.70
2018-11-10T07:20:16.882Z,99988.28
2018-11-10T07:22:44.315Z,99993.66
2018-11-10T07:25:11.818Z,99982.17
2018-11-10T07:27:39.218Z,99984.94
2018-11-10T07:30:10.695Z,99970.95
2018-11-10T07:32:40.111Z,99972.62
2018-11-10T07:35:08.483Z,99981.67
2018-11-10T07:37:36.041Z,99974.81
2018-11-10T07:40:03.883Z,99990.09
2018-11-10T07:42:31.461Z,99993.07
2018-11-10T07:44:58.932Z,99998.22
2018-11-10T07:47:26.442Z,99997.57
2018-11-10T07:49:53.909Z,99991.03
2018-11-10T07:52:21.482Z,99991.38
2018-11-10T07:54:48.940Z,99968.67
2018-11-10T07:57:16.345Z,99977.65
2018-11-10T07:59:43.991Z,99968.30
2018-11-10T08:02:11.554Z,99959.17
2018-11-10T08:04:39.346Z,99966.09
2018-11-10T08:07:07.246Z,99967.72
2018-11-10T08:09:34.842Z,99971.46
2018-11-10T08:12:02.519Z,99976.95
2018-11-10T08:14:29.899Z,99978.00
2018-11-10T08:16:57.437Z,99979.30
2018-11-10T08:19:24.889Z,99982.86
2018-11-10T08:21:52.550Z,99984.98
2018-11-10T08:24:19.995Z,99981.48
2018-11-10T08:26:47.538Z,99974.80
2018-11-10T08:29:15.002Z,99970.72
2018-11-10T08:31:42.441Z,99976.73
2018-11-10T08:34:09.944Z,99981.83
2018-11-10T08:36:37.489Z,99975.12
2018-11-10T08:39:07.126Z,99976.11
2018-11-10T08:41:35.048Z,99978.00
2018-11-10T08:44:02.694Z,99976.28
2018-11-10T08:46:30.253Z,99974.84
2018-11-10T08:48:57.797Z,99968.36
2018-11-10T08:51:25.731Z,99970.84
2018-11-10T08:53:53.432Z,99968.09
2018-11-10T08:56:20.970Z,99975.23
2018-11-10T08:58:48.478Z,99970.25
2018-11-10T09:01:15.912Z,99971.76
2018-11-10T09:03:44.710Z,99967.28
2018-11-10T09:06:12.515Z,99973.34
2018-11-10T09:08:40.334Z,99963.65
2018-11-10T09:11:08.057Z,99960.80
2018-11-10T09:13:35.965Z,99973.03
2018-11-10T09:16:03.891Z,99972.97
2018-11-10T09:18:31.743Z,99965.22
2018-11-10T09:20:59.688Z,99971.43
2018-11-10T09:23:27.475Z,99976.97
2018-11-10T09:25:55.239Z,99980.16
2018-11-10T09:28:22.989Z,99976.85
2018-11-10T09:30:50.640Z,99977.23
2018-11-10T09:33:18.195Z,99967.73
2018-11-10T09:35:45.721Z,99981.26
2018-11-10T09:38:13.439Z,99974.64
2018-11-10T09:40:41.015Z,99966.16
2018-11-10T09:43:08.648Z,99964.69
2018-11-10T09:45:36.189Z,99969.63
2018-11-10T09:48:03.713Z,99975.96
2018-11-10T09:50:31.536Z,99963.49
2018-11-10T09:52:59.299Z,99974.20
2018-11-10T09:55:27.167Z,99969.41
2018-11-10T09:57:55.104Z,99972.97
2018-11-10T10:00:22.890Z,99972.33
2018-11-10T10:02:51.090Z,99968.64
2018-11-10T10:05:18.286Z,99975.10
2018-11-10T10:07:46.151Z,99978.91
2018-11-10T10:10:15.410Z,99975.77
2018-11-10T10:12:43.478Z,99971.63
2018-11-10T10:15:13.710Z,99962.69
2018-11-10T10:17:42.078Z,99959.86
2018-11-10T10:20:12.346Z,99959.42
2018-11-10T10:22:39.812Z,99953.70
2018-11-10T10:25:08.987Z,99951.62
2018-11-10T10:27:36.773Z,99949.04
2018-11-10T10:30:06.741Z,99945.00
2018-11-10T10:32:34.233Z,99943.01
2018-11-10T10:35:01.861Z,99943.16
2018-11-10T10:37:29.265Z,99938.50
2018-11-10T10:39:57.173Z,99936.97
2018-11-10T10:42:24.805Z,99942.15
2018-11-10T10:44:52.223Z,99937.04
2018-11-10T10:47:19.703Z,99935.77
2018-11-10T10:49:47.205Z,99933.48
2018-11-10T10:52:14.777Z,99932.83
2018-11-10T10:54:42.207Z,99936.48
2018-11-10T10:57:09.858Z,99930.70
2018-11-10T10:59:37.319Z,99934.85
2018-11-10T11:02:10.582Z,99935.17
2018-11-10T11:04:48.489Z,99923.23
2018-11-10T11:07:17.171Z,99910.58
2018-11-10T11:09:45.362Z,99912.52
2018-11-10T11:12:12.802Z,99914.16
2018-11-10T11:14:40.687Z,99903.00
2018-11-10T11:17:08.190Z,99897.48
2018-11-10T11:19:35.621Z,99888.02
2018-11-10T11:22:03.393Z,99893.33
2018-11-10T11:24:30.696Z,99891.84
2018-11-10T11:26:58.338Z,99889.83
2018-11-10T11:29:25.936Z,99891.80
2018-11-10T11:31:53.406Z,99892.97
2018-11-10T11:34:20.930Z,99892.32
2018-11-10T11:36:48.462Z,99893.81
2018-11-10T11:39:15.917Z,99897.81
2018-11-10T11:41:43.535Z,99898.48
2018-11-10T11:44:10.981Z,99898.52
2018-11-10T11:46:38.440Z,99903.00
2018-11-10T11:49:09.068Z,99901.48
2018-11-10T11:51:36.889Z,99897.81
2018-11-10T11:54:04.574Z,99893.69
2018-11-10T11:56:32.344Z,99897.93
2018-11-10T11:58:59.908Z,99902.99
2018-11-10T12:01:27.413Z,99892.25
2018-11-10T12:03:54.852Z,99888.36
2018-11-10T12:06:22.415Z,99877.97
2018-11-10T12:08:56.535Z,99881.09
2018-11-10T12:11:24.067Z,99878.42
2018-11-10T12:13:51.487Z,99877.48
2018-11-10T12:16:27.198Z,99874.78
2018-11-10T12:18:47.585Z,99866.33
2018-11-10T12:21:15.063Z,99864.52
2018-11-10T12:23:42.499Z,99866.76
2018-11-10T12:26:10.136Z,99863.34
2018-11-10T12:28:37.665Z,99860.94
2018-11-10T12:31:05.490Z,99863.48
2018-11-10T12:33:33.247Z,99851.52
2018-11-10T12:36:00.709Z,99864.16
2018-11-10T12:38:28.318Z,99856.86
2018-11-10T12:40:55.851Z,99862.05
2018-11-10T12:43:23.314Z,99856.22
2018-11-10T12:45:50.785Z,99843.61
2018-11-10T12:48:18.269Z,99846.42
2018-11-10T12:50:45.832Z,99842.77
2018-11-10T12:53:13.257Z,99836.47
2018-11-10T12:55:40.855Z,99827.69
2018-11-10T12:58:08.308Z,99833.20
2018-11-10T13:00:35.840Z,99828.17
2018-11-10T13:03:03.474Z,99825.52
2018-11-10T13:05:31.166Z,99828.04
2018-11-10T13:07:58.728Z,99831.53
2018-11-10T13:10:26.193Z,99830.53
2018-11-10T13:12:53.749Z,99825.20
2018-11-10T13:15:21.219Z,99824.48
2018-11-10T13:17:48.773Z,99814.17
2018-11-10T13:20:16.302Z,99816.05
2018-11-10T13:22:43.769Z,99821.05
2018-11-10T13:25:12.459Z,99816.57
2018-11-10T13:27:39.954Z,99822.59
2018-11-10T13:30:08.839Z,99810.19
2018-11-10T13:32:36.742Z,99813.03
2018-11-10T13:35:05.826Z,99809.03
2018-11-10T13:37:33.384Z,99804.74
2018-11-10T13:40:00.899Z,99809.87
2018-11-10T13:42:28.403Z,99800.58
2018-11-10T13:44:55.862Z,99806.04
2018-11-10T13:47:23.456Z,99798.57
2018-11-10T13:49:50.906Z,99802.92
2018-11-10T13:52:18.735Z,99802.09
2018-11-10T13:54:46.073Z,99810.37
2018-11-10T13:57:13.584Z,99808.55
2018-11-10T13:59:41.402Z,99803.41
2018-11-10T14:02:09.024Z,99794.61
2018-11-10T14:04:36.590Z,99800.76
2018-11-10T14:07:04.338Z,99799.77
2018-11-10T14:09:31.804Z,99799.59
2018-11-10T14:11:59.262Z,99795.09
2018-11-10T14:14:26.859Z,99789.63
2018-11-10T14:16:54.447Z,99796.41
2018-11-10T14:19:21.912Z,99794.90
2018-11-10T14:21:49.966Z,99797.03
2018-11-10T14:24:17.486Z,99800.82
2018-11-10T14:26:44.978Z,99804.95
2018-11-10T14:29:12.508Z,99807.10
2018-11-10T14:31:40.054Z,99809.57
2018-11-10T14:34:07.490Z,99812.41
2018-11-10T14:36:34.998Z,99816.53
2018-11-10T14:39:03.315Z,99809.57
2018-11-10T14:41:30.778Z,99816.86
2018-11-10T14:43:58.197Z,99812.20
2018-11-10T14:46:25.856Z,99809.38
2018-11-10T14:48:53.259Z,99811.03
2018-11-10T14:51:20.817Z,99814.19
2018-11-10T14:53:48.264Z,99810.30
2018-11-10T14:56:15.734Z,99815.24
2018-11-10T14:58:43.270Z,99812.89
2018-11-10T15:01:10.695Z,99821.28
2018-11-10T15:03:38.230Z,99822.57
2018-11-10T15:06:05.709Z,99823.05
2018-11-10T15:08:33.290Z,99820.18
2018-11-10T15:11:00.886Z,99814.84
2018-11-10T15:13:28.368Z,99818.91
2018-11-10T15:15:55.882Z,99824.66
2018-11-10T15:18:23.439Z,99823.44
2018-11-10T15:20:50.960Z,99833.49
2018-11-10T15:23:18.530Z,99829.32
2018-11-10T15:25:45.988Z,99832.77
2018-11-10T15:28:13.458Z,99835.36
2018-11-10T15:30:41.104Z,99842.19
2018-11-10T15:33:08.534Z,99845.99
2018-11-10T15:35:35.983Z,99846.66
2018-11-10T15:38:03.782Z,99843.97
2018-11-10T15:40:31.278Z,99835.89
2018-11-10T15:42:58.712Z,99844.95
2018-11-10T15:45:26.212Z,99852.56
2018-11-10T15:47:53.678Z,99846.60
2018-11-10T15:50:21.224Z,99845.34
2018-11-10T15:52:48.690Z,99847.73
2018-11-10T15:55:16.250Z,99838.73
2018-11-10T15:57:43.699Z,99842.09
2018-11-10T16:00:13.195Z,99848.91
2018-11-10T16:02:41.303Z,99847.44
2018-11-10T16:05:09.670Z,99836.86
2018-11-10T16:07:37.506Z,99834.59
2018-11-10T16:10:05.561Z,99841.48
2018-11-10T16:12:33.119Z,99834.06
2018-11-10T16:15:00.773Z,99838.51
2018-11-10T16:17:28.302Z,99834.58
2018-11-10T16:19:55.859Z,99836.92
2018-11-10T16:22:23.388Z,99828.16
2018-11-10T16:24:51.299Z,99834.45
2018-11-10T16:27:19.057Z,99825.61
2018-11-10T16:29:46.797Z,99817.47
2018-11-10T16:32:14.401Z,99818.55
2018-11-10T16:34:41.843Z,99826.11
2018-11-10T16:37:09.626Z,99819.91
2018-11-10T16:39:37.069Z,99818.72
2018-11-10T16:42:05.304Z,99810.31
2018-11-10T16:44:32.854Z,99807.48
2018-11-10T16:47:00.394Z,99816.07
2018-11-10T16:49:27.916Z,99812.81
2018-11-10T16:51:55.725Z,99820.22
2018-11-10T16:54:23.231Z,99821.91
2018-11-10T16:56:50.777Z,99819.41
2018-11-10T16:59:18.243Z,99818.19
2018-11-10T17:01:45.951Z,99811.78
2018-11-10T17:04:13.785Z,99809.86
2018-11-10T17:06:41.377Z,99807.55
2018-11-10T17:09:10.842Z,99794.64
2018-11-10T17:11:38.444Z,99797.01
2018-11-10T17:14:06.618Z,99795.03
2018-11-10T17:16:34.354Z,99788.27
2018-11-10T17:19:01.980Z,99786.38
2018-11-10T17:21:29.531Z,99799.41
2018-11-10T17:23:56.984Z,99799.77
2018-11-10T17:26:24.574Z,99801.23
2018-11-10T17:28:52.044Z,99794.87
2018-11-10T17:31:19.694Z,99795.23
2018-11-10T17:33:47.152Z,99792.22
2018-11-10T17:36:14.674Z,99786.22
2018-11-10T17:38:42.296Z,99791.28
2018-11-10T17:41:09.810Z,99792.45
2018-11-10T17:43:37.282Z,99788.95
2018-11-10T17:46:05.528Z,99785.99
2018-11-10T17:48:33.029Z,99771.78
2018-11-10T17:51:00.502Z,99788.78
2018-11-10T17:53:28.249Z,99784.81
2018-11-10T17:55:55.734Z,99777.77
2018-11-10T17:58:23.382Z,99777.50
2018-11-10T18:00:50.826Z,99779.16
2018-11-10T18:03:18.228Z,99778.34
2018-11-10T18:05:45.738Z,99780.00
2018-11-10T18:08:13.216Z,99779.77
2018-11-10T18:10:40.636Z,99781.41
2018-11-10T18:13:08.295Z,99780.94
2018-11-10T18:15:35.698Z,99779.95
2018-11-10T18:18:03.209Z,99781.56
2018-11-10T18:20:30.738Z,99791.95
2018-11-10T18:22:58.205Z,99786.03
2018-11-10T18:25:25.925Z,99785.72
2018-11-10T18:27:53.374Z,99787.75
2018-11-10T18:30:20.806Z,99789.22
2018-11-10T18:32:48.344Z,99792.04
2018-11-10T18:35:15.858Z,99781.46
2018-11-10T18:37:43.411Z,99779.95
2018-11-10T18:40:11.059Z,99793.80
2018-11-10T18:42:38.549Z,99792.65
2018-11-10T18:45:07.118Z,99798.27
2018-11-10T18:47:34.662Z,99803.89
2018-11-10T18:50:02.306Z,99796.61
2018-11-10T18:52:30.023Z,99796.95
2018-11-10T18:54:57.452Z,99801.59
2018-11-10T18:57:25.136Z,99801.58
2018-11-10T18:59:52.686Z,99788.45
2018-11-10T19:02:20.204Z,99797.17
2018-11-10T19:04:48.061Z,99791.58
2018-11-10T19:07:15.507Z,99790.67
2018-11-10T19:09:43.125Z,99792.85
2018-11-10T19:12:10.826Z,99784.03
2018-11-10T19:14:38.368Z,99776.66
2018-11-10T19:17:05.894Z,99783.77
2018-11-10T19:19:33.578Z,99777.85
2018-11-10T19:22:01.119Z,99778.64
2018-11-10T19:24:28.794Z,99786.55
2018-11-10T19:26:56.326Z,99788.85
2018-11-10T19:29:23.889Z,99788.34
2018-11-10T19:31:51.497Z,99794.50
2018-11-10T19:34:18.978Z,99801.95
2018-11-10T19:36:46.536Z,99804.11
2018-11-10T19:39:14.057Z,99806.89
2018-11-10T19:41:41.874Z,99817.20
2018-11-10T19:44:09.987Z,99822.36
2018-11-10T19:46:38.350Z,99825.16
2018-11-10T19:49:05.959Z,99821.05
2018-11-10T19:51:33.927Z,99811.74
2018-11-10T19:54:01.249Z,99818.50
2018-11-10T19:56:28.937Z,99814.86
2018-11-10T19:58:56.365Z,99813.86
2018-11-10T20:01:23.826Z,99817.16
2018-11-10T20:03:52.059Z,99811.48
2018-11-10T20:06:19.543Z,99808.18
2018-11-10T20:08:47.088Z,99811.50
2018-11-10T20:11:14.714Z,99804.55
2018-11-10T20:13:42.352Z,99807.39
2018-11-10T20:16:09.891Z,99817.01
2018-11-10T20:18:37.407Z,99815.66
2018-11-10T20:21:04.919Z,99814.67
2018-11-10T20:23:32.349Z,99827.81
2018-11-10T20:25:59.983Z,99821.25
2018-11-10T20:28:27.639Z,99821.50
2018-11-10T20:30:55.223Z,99820.42
2018-11-10T20:33:22.815Z,99827.13
2018-11-10T20:35:50.365Z,99831.57
2018-11-10T20:38:17.842Z,99825.61
2018-11-10T20:40:45.509Z,99826.98
2018-11-10T20:43:13.061Z,99828.11
2018-11-10T20:45:40.601Z,99827.08
2018-11-10T20:48:08.125Z,99830.25
2018-11-10T20:50:35.927Z,99830.62
2018-11-10T20:53:03.471Z,99828.41
2018-11-10T20:55:31.349Z,99823.29
2018-11-10T20:57:58.927Z,99821.03
2018-11-10T21:00:26.554Z,99817.99
2018-11-10T21:02:54.186Z,99825.17
2018-11-10T21:05:21.691Z,99828.27
2018-11-10T21:07:49.239Z,99833.37
2018-11-10T21:10:18.329Z,99836.37
2018-11-10T21:12:46.651Z,99830.03
2018-11-10T21:15:14.911Z,99826.05
2018-11-10T21:17:42.748Z,99831.80
2018-11-10T21:20:11.089Z,99839.92
2018-11-10T21:22:38.622Z,99840.55
2018-11-10T21:25:07.944Z,99844.51
2018-11-10T21:27:35.564Z,99848.53
2018-11-10T21:30:03.651Z,99843.63
2018-11-10T21:32:31.312Z,99837.17
2018-11-10T21:34:58.799Z,99838.16
2018-11-10T21:37:26.414Z,99828.03
2018-11-10T21:39:53.956Z,99819.63
2018-11-10T21:42:21.406Z,99817.31
2018-11-10T21:44:48.914Z,99812.83
2018-11-10T21:47:16.518Z,99810.55
2018-11-10T21:49:44.022Z,99808.72
2018-11-10T21:52:11.483Z,99809.44
2018-11-10T21:54:39.066Z,99806.92
2018-11-10T21:57:06.612Z,99806.73
2018-11-10T21:59:34.104Z,99800.59
2018-11-10T22:02:01.873Z,99795.48
2018-11-10T22:04:29.325Z,99794.96
2018-11-10T22:06:56.869Z,99805.54
2018-11-10T22:09:24.886Z,99804.56
2018-11-10T22:11:52.279Z,99807.55
2018-11-10T22:14:19.752Z,99812.36
2018-11-10T22:16:47.401Z,99812.16
2018-11-10T22:19:15.822Z,99820.67
2018-11-10T22:21:43.272Z,99823.61
2018-11-10T22:24:10.823Z,99824.41
2018-11-10T22:26:38.310Z,99828.69
2018-11-10T22:29:05.754Z,99821.22
2018-11-10T22:31:33.499Z,99826.65
2018-11-10T22:34:00.967Z,99828.63
2018-11-10T22:36:28.504Z,99820.50
2018-11-10T22:38:56.000Z,99826.65
2018-11-10T22:41:23.548Z,99821.23
2018-11-10T22:43:51.138Z,99826.70
2018-11-10T22:46:18.649Z,99820.18
2018-11-10T22:48:46.166Z,99822.81
2018-11-10T22:51:13.630Z,99823.57
2018-11-10T22:53:41.225Z,99826.16
2018-11-10T22:56:08.846Z,99830.78
2018-11-10T22:58:36.515Z,99832.56
2018-11-10T23:01:06.809Z,99832.69
2018-11-10T23:03:35.283Z,99833.02
2018-11-10T23:06:10.166Z,99834.00
2018-11-10T23:08:37.806Z,99837.60
2018-11-10T23:11:05.273Z,99840.61
2018-11-10T23:13:33.500Z,99842.55
2018-11-10T23:16:01.020Z,99839.23
2018-11-10T23:18:28.513Z,99847.22
2018-11-10T23:20:56.022Z,99853.26
2018-11-10T23:23:23.528Z,99861.91
2018-11-10T23:25:50.983Z,99871.98
2018-11-10T23:28:18.688Z,99871.75
2018-11-10T23:30:46.271Z,99872.28
2018-11-10T23:33:13.766Z,99881.85
2018-11-10T23:35:41.337Z,99881.00
2018-11-10T23:38:08.802Z,99889.34
2018-11-10T23:40:36.421Z,99884.67
2018-11-10T23:43:04.029Z,99897.22
2018-11-10T23:45:31.485Z,99895.34
2018-11-10T23:47:58.985Z,99906.05
2018-11-10T23:50:26.581Z,99896.13
2018-11-10T23:52:54.360Z,99898.12
2018-11-10T23:55:21.939Z,99898.15
2018-11-10T23:57:49.414Z,99905.52
